createdAt,value
2023-05-08T00:00:00.959Z,0.0
2023-05-08T00:05:00.752Z,4.0
2023-05-08T00:10:00.401Z,4.0
2023-05-08T00:15:00.350Z,4.0
2023-05-08T00:20:00.413Z,2.5
2023-05-08T00:25:00.398Z,3.6
2023-05-08T00:30:00.329Z,2.5
2023-05-08T00:35:00.391Z,2.5
2023-05-08T00:40:00.397Z,2.2
2023-05-08T00:45:00.467Z,2.9
2023-05-08T00:50:00.405Z,0.0
2023-05-08T00:55:00.408Z,2.5
2023-05-08T01:00:00.405Z,2.9
2023-05-08T01:05:00.364Z,0.0
2023-05-08T01:10:00.405Z,4.3
2023-05-08T01:15:00.370Z,2.5
2023-05-08T01:20:00.408Z,2.5
2023-05-08T01:25:00.333Z,2.9
2023-05-08T01:30:00.404Z,4.7
2023-05-08T01:35:00.426Z,4.7
2023-05-08T01:40:00.425Z,2.9
2023-05-08T01:45:00.400Z,4.3
2023-05-08T01:50:00.409Z,2.9
2023-05-08T01:55:00.330Z,4.0
2023-05-08T02:00:00.423Z,4.7
2023-05-08T02:05:00.316Z,4.0
2023-05-08T02:10:00.342Z,4.0
2023-05-08T02:15:00.403Z,3.6
2023-05-08T02:20:00.417Z,8.3
2023-05-08T02:25:00.330Z,7.6
2023-05-08T02:30:00.590Z,5.0
2023-05-08T02:35:04.050Z,7.2
2023-05-08T02:40:00.470Z,3.2
2023-05-08T02:45:00.329Z,1.8
2023-05-08T02:50:00.512Z,1.8
2023-05-08T02:55:00.388Z,3.6
2023-05-08T03:00:00.418Z,2.2
2023-05-08T03:05:00.398Z,5.0
2023-05-08T03:10:00.510Z,1.8
2023-05-08T03:15:00.361Z,3.6
2023-05-08T03:20:00.409Z,0.0
2023-05-08T03:25:00.405Z,2.5
2023-05-08T03:30:00.401Z,4.7
2023-05-08T03:35:00.382Z,10.1
2023-05-08T03:40:00.388Z,2.5
2023-05-08T03:45:00.359Z,0.0
2023-05-08T03:50:00.413Z,2.2
2023-05-08T03:55:00.351Z,3.6
2023-05-08T04:00:00.363Z,3.6
2023-05-08T04:05:00.394Z,2.2
2023-05-08T04:10:00.397Z,6.8
2023-05-08T04:15:00.405Z,7.2
2023-05-08T04:20:00.366Z,4.7
2023-05-08T04:25:00.392Z,5.0
2023-05-08T04:30:00.412Z,6.1
2023-05-08T04:35:00.406Z,5.0
2023-05-08T04:40:00.414Z,5.8
2023-05-08T04:45:00.407Z,5.0
2023-05-08T04:50:03.541Z,5.8
2023-05-08T04:55:00.396Z,6.1
2023-05-08T05:00:00.657Z,10.4
2023-05-08T05:05:00.450Z,13.7
2023-05-08T05:10:00.411Z,15.5
2023-05-08T05:15:00.374Z,10.1
2023-05-08T05:20:00.511Z,6.5
2023-05-08T05:25:00.341Z,14.8
2023-05-08T05:30:00.447Z,12.6
2023-05-08T05:35:00.421Z,13.7
2023-05-08T05:40:00.441Z,12.6
2023-05-08T05:45:00.328Z,9.4
2023-05-08T05:50:00.355Z,10.1
2023-05-08T05:55:00.336Z,9.0
2023-05-08T06:00:00.581Z,6.8
2023-05-08T06:05:00.394Z,14.4
2023-05-08T06:10:00.410Z,14.8
2023-05-08T06:15:00.427Z,9.4
2023-05-08T06:20:00.405Z,4.0
2023-05-08T06:25:00.430Z,15.5
2023-05-08T06:30:00.430Z,5.0
2023-05-08T06:35:00.399Z,15.5
2023-05-08T06:40:13.129Z,6.5
2023-05-08T06:45:00.336Z,14.8
2023-05-08T06:50:00.410Z,21.6
2023-05-08T06:55:00.424Z,12.6
2023-05-08T07:00:00.555Z,14.8
2023-05-08T07:05:00.697Z,11.5
2023-05-08T07:10:00.411Z,24.8
2023-05-08T07:15:25.162Z,17.3
2023-05-08T07:20:00.413Z,9.4
2023-05-08T07:25:00.345Z,22.0
2023-05-08T07:30:00.429Z,17.3
2023-05-08T07:35:00.343Z,20.5
2023-05-08T07:40:00.415Z,32.4
2023-05-08T07:50:00.406Z,27.7
2023-05-08T07:55:00.399Z,21.2
2023-05-08T08:00:00.410Z,7.9
2023-05-08T08:05:00.540Z,12.6
2023-05-08T08:10:00.410Z,21.6
2023-05-08T08:15:00.414Z,16.9
2023-05-08T08:20:00.341Z,20.2
2023-05-08T08:25:00.565Z,25.9
2023-05-08T08:30:18.866Z,22.0
2023-05-08T08:35:00.398Z,23.0
2023-05-08T08:40:00.406Z,26.3
2023-05-08T08:45:00.342Z,26.3
2023-05-08T08:50:00.535Z,22.0
2023-05-08T08:55:00.323Z,21.6
2023-05-08T09:00:00.407Z,20.9
2023-05-08T09:05:00.466Z,12.6
2023-05-08T09:10:00.470Z,15.1
2023-05-08T09:15:00.703Z,15.8
2023-05-08T09:20:00.402Z,26.6
2023-05-08T09:25:00.336Z,13.7
2023-05-08T09:30:00.468Z,14.8
2023-05-08T09:35:00.476Z,18.7
2023-05-08T09:40:00.400Z,22.0
2023-05-08T09:45:00.421Z,19.4
2023-05-08T09:50:00.610Z,17.3
2023-05-08T09:55:00.346Z,21.2
2023-05-08T10:00:00.429Z,11.2
2023-05-08T10:05:00.546Z,20.9
2023-05-08T10:10:00.407Z,22.3
2023-05-08T10:15:00.432Z,19.8
2023-05-08T10:20:00.551Z,9.4
2023-05-08T10:25:00.397Z,15.8
2023-05-08T10:30:00.548Z,11.2
2023-05-08T10:35:00.433Z,11.9
2023-05-08T10:40:00.553Z,7.6
2023-05-08T10:45:00.438Z,10.8
2023-05-08T10:50:00.565Z,18.0
2023-05-08T10:55:00.383Z,15.5
2023-05-08T11:00:00.423Z,19.1
2023-05-08T11:05:00.338Z,20.2
2023-05-08T11:10:00.415Z,12.2
2023-05-08T11:15:00.507Z,7.6
2023-05-08T11:20:00.422Z,14.4
2023-05-08T11:25:00.418Z,23.4
2023-05-08T11:30:00.672Z,13.7
2023-05-08T11:35:00.341Z,17.3
2023-05-08T11:40:00.455Z,11.2
2023-05-08T11:45:00.401Z,20.9
2023-05-08T11:50:00.428Z,18.4
2023-05-08T11:55:00.405Z,10.8
2023-05-08T12:00:00.431Z,9.4
2023-05-08T12:05:00.704Z,20.2
2023-05-08T12:10:00.345Z,16.2
2023-05-08T12:15:00.350Z,15.1
2023-05-08T12:20:00.407Z,13.7
2023-05-08T12:25:00.405Z,6.5
2023-05-08T12:30:00.334Z,16.6
2023-05-08T12:35:00.332Z,22.3
2023-05-08T12:40:00.407Z,23.4
2023-05-08T12:45:00.361Z,9.0
2023-05-08T12:50:00.453Z,15.8
2023-05-08T12:55:00.414Z,19.1
2023-05-08T13:00:04.935Z,24.8
2023-05-08T13:05:00.338Z,19.4
2023-05-08T13:10:00.618Z,17.6
2023-05-08T13:15:00.424Z,16.9
2023-05-08T13:20:00.463Z,12.2
2023-05-08T13:25:00.402Z,7.2
2023-05-08T13:30:00.465Z,18.0
2023-05-08T13:35:01.513Z,15.8
2023-05-08T13:40:00.545Z,20.5
2023-05-08T13:45:00.363Z,23.4
2023-05-08T13:50:00.606Z,13.7
2023-05-08T13:55:00.428Z,20.2
2023-05-08T14:00:00.429Z,25.6
2023-05-08T14:05:00.372Z,21.2
2023-05-08T14:10:00.421Z,13.3
2023-05-08T14:15:00.462Z,5.8
2023-05-08T14:20:00.710Z,11.9
2023-05-08T14:25:00.368Z,16.6
2023-05-08T14:30:00.578Z,17.3
2023-05-08T14:35:00.404Z,14.8
2023-05-08T14:40:00.686Z,21.6
2023-05-08T14:45:00.662Z,20.5
2023-05-08T14:50:00.406Z,14.8
2023-05-08T14:55:01.325Z,27.7
2023-05-08T15:00:00.423Z,29.5
2023-05-08T15:05:00.344Z,6.1
2023-05-08T15:10:00.430Z,16.6
2023-05-08T15:15:04.931Z,14.4
2023-05-08T15:20:00.332Z,8.3
2023-05-08T15:25:00.542Z,22.7
2023-05-08T15:30:00.672Z,11.5
2023-05-08T15:35:00.641Z,19.8
2023-05-08T15:40:00.413Z,7.6
2023-05-08T15:45:00.622Z,15.5
2023-05-08T15:50:00.338Z,22.7
2023-05-08T15:55:00.518Z,16.9
2023-05-08T16:00:00.674Z,11.5
2023-05-08T16:05:00.416Z,12.2
2023-05-08T16:10:00.433Z,15.8
2023-05-08T16:15:00.419Z,14.4
2023-05-08T16:20:00.893Z,10.1
2023-05-08T16:25:00.680Z,18.4
2023-05-08T16:30:00.457Z,17.6
2023-05-08T16:35:00.654Z,16.9
2023-05-08T16:40:00.699Z,15.5
2023-05-08T16:45:00.405Z,16.9
2023-05-08T16:50:00.773Z,17.6
2023-05-08T16:55:00.866Z,7.9
2023-05-08T17:00:00.423Z,11.9
2023-05-08T17:05:00.408Z,19.1
2023-05-08T17:10:00.412Z,19.4
2023-05-08T17:15:00.339Z,21.6
2023-05-08T17:20:00.451Z,12.6
2023-05-08T17:25:00.476Z,15.8
2023-05-08T17:30:00.454Z,14.8
2023-05-08T17:35:00.484Z,14.8
2023-05-08T17:40:00.712Z,5.0
2023-05-08T17:45:00.415Z,16.9
2023-05-08T17:50:00.498Z,19.1
2023-05-08T17:55:00.337Z,15.5
2023-05-08T18:00:00.419Z,16.6
2023-05-08T18:05:00.459Z,9.0
2023-05-08T18:10:00.473Z,11.9
2023-05-08T18:15:00.629Z,9.7
2023-05-08T18:20:00.411Z,14.8
2023-05-08T18:25:00.405Z,14.4
2023-05-08T18:30:00.427Z,8.6
2023-05-08T18:35:00.481Z,19.4
2023-05-08T18:40:00.401Z,10.1
2023-05-08T18:45:00.455Z,9.4
2023-05-08T18:50:00.505Z,8.6
2023-05-08T18:55:00.420Z,12.2
2023-05-08T19:00:00.421Z,7.9
2023-05-08T19:05:00.345Z,4.0
2023-05-08T19:10:00.486Z,14.4
2023-05-08T19:15:00.361Z,5.8
2023-05-08T19:20:00.410Z,5.0
2023-05-08T19:25:00.332Z,10.8
2023-05-08T19:30:00.417Z,13.7
2023-05-08T19:35:00.315Z,7.2
2023-05-08T19:40:00.407Z,6.8
2023-05-08T19:45:00.436Z,5.0
2023-05-08T19:50:00.397Z,2.5
2023-05-08T19:55:00.405Z,6.8
2023-05-08T20:00:00.357Z,6.5
2023-05-08T20:05:21.555Z,3.2
2023-05-08T20:10:00.331Z,9.7
2023-05-08T20:15:00.423Z,3.6
2023-05-08T20:20:00.641Z,5.0
2023-05-08T20:25:05.068Z,3.6
2023-05-08T20:30:00.366Z,7.2
2023-05-08T20:35:00.333Z,7.2
2023-05-08T20:40:00.399Z,4.0
2023-05-08T20:45:00.321Z,6.1
2023-05-08T20:50:00.360Z,2.9
2023-05-08T20:55:00.389Z,2.5
2023-05-08T21:00:00.513Z,4.0
2023-05-08T21:05:00.960Z,3.6
2023-05-08T21:10:00.391Z,3.2
2023-05-08T21:15:00.313Z,2.9
2023-05-08T21:20:00.362Z,5.8
2023-05-08T21:25:00.380Z,8.3
2023-05-08T21:30:00.407Z,3.2
2023-05-08T21:35:00.319Z,4.0
2023-05-08T21:40:00.404Z,6.1
2023-05-08T21:45:00.416Z,3.2
2023-05-08T21:50:00.424Z,1.4
2023-05-08T21:55:00.369Z,4.0
2023-05-08T22:00:00.456Z,5.0
2023-05-08T22:05:00.393Z,7.2
2023-05-08T22:10:00.357Z,5.4
2023-05-08T22:15:00.456Z,8.3
2023-05-08T22:20:00.514Z,2.9
2023-05-08T22:25:00.324Z,4.0
2023-05-08T22:30:00.403Z,8.3
2023-05-08T22:35:00.395Z,3.6
2023-05-08T22:40:00.391Z,7.6
2023-05-08T22:45:00.410Z,5.0
2023-05-08T22:50:00.366Z,12.6
2023-05-08T22:55:00.335Z,3.6
2023-05-08T23:00:00.369Z,6.1
2023-05-08T23:05:00.587Z,8.6
2023-05-08T23:10:00.413Z,6.1
2023-05-08T23:15:00.625Z,9.4
2023-05-08T23:20:01.391Z,8.3
2023-05-08T23:25:00.363Z,7.9
2023-05-08T23:30:00.435Z,8.3
2023-05-08T23:35:00.369Z,8.3
2023-05-08T23:40:00.334Z,7.6
2023-05-08T23:45:00.323Z,6.8
2023-05-08T23:50:00.393Z,10.1
2023-05-08T23:55:00.390Z,3.6
